Date,TemperatureHighF,TemperatureAvgF,TemperatureLowF,DewpointHighF,DewpointAvgF,DewpointLowF,HumidityHigh,HumidityAvg,HumidityLow,PressureMaxIn,PressureMinIn,WindSpeedMaxMPH,WindSpeedAvgMPH,GustSpeedMaxMPH,PrecipitationSumIn
2013-1-1,36,26,20,-100,-100,-100,0,0,100,0.00,40.00,6,2,8,0.00
2013-1-2,30,27,24,-100,-100,-100,0,0,100,0.00,40.00,28,9,36,0.00
2013-1-3,35,29,21,-100,-100,-100,0,0,100,0.00,40.00,41,22,58,0.00
2013-1-4,37,31,25,-100,-100,-100,0,0,100,0.00,40.00,50,13,50,0.00
2013-1-5,36,30,25,-100,-100,-100,0,0,100,0.00,40.00,50,20,56,0.00
2013-1-6,42,33,29,-100,-100,-100,0,0,100,0.00,40.00,34,9,41,0.00
2013-1-7,37,33,29,-100,-100,-100,0,0,100,0.00,40.00,51,28,60,0.00
2013-1-8,44,40,34,-100,-100,-100,0,0,100,0.00,40.00,51,20,57,0.00
2013-1-9,48,44,36,-100,-100,-100,0,0,100,0.00,40.00,50,21,53,0.00
2013-1-10,39,35,32,-100,-100,-100,0,0,100,0.00,40.00,15,9,17,0.00
2013-1-11,31,29,25,-100,-100,-100,0,0,100,0.00,40.00,17,10,24,0.00
2013-1-12,29,22,14,-100,-100,-100,0,0,100,0.00,40.00,5,2,9,0.00
2013-1-13,34,23,17,-100,-100,-100,0,0,100,0.00,40.00,9,3,11,0.00
2013-1-14,33,24,20,-100,-100,-100,0,0,100,0.00,40.00,22,4,27,0.00
2013-1-15,36,25,17,-100,-100,-100,0,0,100,0.00,40.00,4,2,6,0.00
2013-1-16,33,27,20,-100,-100,-100,0,0,100,0.00,40.00,25,8,38,0.00
2013-1-17,34,30,25,-100,-100,-100,0,0,100,0.00,40.00,35,16,41,0.00
2013-1-18,37,33,29,-100,-100,-100,0,0,100,0.00,40.00,37,21,44,0.00
2013-1-19,38,31,23,-100,-100,-100,0,0,100,0.00,40.00,35,9,37,0.00
2013-1-20,36,29,22,-100,-100,-100,0,0,100,0.00,40.00,10,4,14,0.00
2013-4-15,49,43,41,-100,-100,-100,0,0,100,0.00,40.00,14,9,16,0.00
2013-4-16,47,42,36,-100,-100,-100,0,0,100,0.00,40.00,22,9,22,0.00
2013-4-17,56,46,29,-100,-100,-100,0,0,100,0.00,40.00,16,8,22,0.00
2013-4-18,64,47,29,-100,-100,-100,0,0,100,0.00,40.00,9,3,10,0.00
2013-4-19,55,52,51,-100,-100,-100,0,0,100,0.00,40.00,14,5,17,0.00
2013-4-20,62,54,47,-100,-100,-100,0,0,100,0.00,40.00,25,6,28,0.00
2013-4-21,60,50,36,-100,-100,-100,0,0,100,0.00,40.00,18,7,20,0.00
2013-4-22,56,49,41,-100,-100,-100,0,0,100,0.00,40.00,16,10,20,0.00
2013-4-23,62,49,30,-100,-100,-100,0,0,100,0.00,40.00,10,4,15,0.00
2013-4-24,72,56,32,-100,-100,-100,0,0,100,0.00,40.00,16,5,24,0.00
2013-4-25,73,60,40,-100,-100,-100,0,0,100,0.00,40.00,19,6,20,0.00
2013-4-26,81,63,45,-100,-100,-100,0,0,100,0.00,40.00,12,4,13,0.00
2013-4-27,82,63,47,-100,-100,-100,0,0,100,0.00,40.00,14,4,21,0.00
2013-4-28,68,59,49,-100,-100,-100,0,0,100,0.00,40.00,19,5,19,0.00
2013-4-29,61,56,48,-100,-100,-100,0,0,100,0.00,40.00,31,11,36,0.00
2013-4-30,54,46,38,-100,-100,-100,0,0,100,0.00,40.00,16,10,22,0.00
2013-5-1,67,47,28,-100,-100,-100,0,0,100,0.00,40.00,7,3,9,0.00
2013-5-2,73,58,35,-100,-100,-100,0,0,100,0.00,40.00,22,7,25,0.00
2013-5-3,73,62,44,-100,-100,-100,0,0,100,0.00,40.00,17,6,23,0.00
2013-5-4,73,66,54,-100,-100,-100,0,0,100,0.00,40.00,16,10,21,0.00
2013-5-5,79,67,45,-100,-100,-100,0,0,100,0.00,40.00,10,3,12,0.00
2013-5-6,87,69,47,-100,-100,-100,0,0,100,0.00,40.00,13,5,20,0.00
2013-5-7,87,70,52,-100,-100,-100,0,0,100,0.00,40.00,16,6,19,0.00
2013-5-8,87,71,52,-100,-100,-100,0,0,100,0.00,40.00,12,5,15,0.00
2013-5-9,90,73,54,-100,-100,-100,0,0,100,0.00,40.00,13,4,16,0.00
2013-5-10,91,70,50,-100,-100,-100,0,0,100,0.00,40.00,6,2,8,0.00
2013-5-11,93,73,58,-100,-100,-100,0,0,100,0.00,40.00,8,3,11,0.00
2013-5-12,87,72,60,-100,-100,-100,0,0,100,0.00,40.00,16,5,18,0.00
2013-5-13,83,66,54,-100,-100,-100,0,0,100,0.00,40.00,21,7,33,0.00
2013-5-14,73,62,52,-100,-100,-100,0,0,100,0.00,40.00,13,6,17,0.00
2013-5-15,74,58,40,-100,-100,-100,0,0,100,0.00,40.00,19,5,20,0.00
2013-5-16,71,57,56,-100,-100,-100,0,0,100,0.00,40.00,14,6,16,0.00
2013-5-17,67,58,54,-100,-100,-100,0,0,100,0.00,40.00,18,9,21,0.00
2013-5-18,69,57,47,-100,-100,-100,0,0,100,0.00,40.00,12,6,15,0.00
2013-5-19,65,57,51,-100,-100,-100,0,0,100,0.00,40.00,15,7,18,0.00
2013-5-20,80,61,42,-100,-100,-100,0,0,100,0.00,40.00,7,3,10,0.00
2013-5-21,74,60,45,-100,-100,-100,0,0,100,0.00,40.00,31,14,35,0.00
2013-5-22,54,46,42,-100,-100,-100,0,0,100,0.00,40.00,14,5,18,0.00
2013-5-23,63,50,32,-100,-100,-100,0,0,100,0.00,40.00,21,5,29,0.00
2013-5-24,59,50,42,-100,-100,-100,0,0,100,0.00,40.00,8,4,13,0.00
2013-5-25,69,56,42,-100,-100,-100,0,0,100,0.00,40.00,9,3,9,0.00
2013-5-26,65,58,46,-100,-100,-100,0,0,100,0.00,40.00,12,6,17,0.00
2013-5-27,66,57,45,-100,-100,-100,0,0,100,0.00,40.00,17,5,19,0.00
2013-5-28,67,58,53,-100,-100,-100,0,0,100,0.00,40.00,11,6,18,0.00
2013-5-29,63,54,47,-100,-100,-100,0,0,100,0.00,40.00,14,4,20,0.00
2013-5-30,66,58,51,-100,-100,-100,0,0,100,0.00,40.00,14,6,16,0.00
2013-5-31,71,61,40,-100,-100,-100,0,0,100,0.00,40.00,9,4,12,0.00
2013-6-1,81,63,43,-100,-100,-100,0,0,100,0.00,40.00,10,3,15,0.00
2013-6-2,73,63,50,-100,-100,-100,0,0,100,0.00,40.00,18,8,24,0.00
2013-6-3,76,64,44,-100,-100,-100,0,0,100,0.00,40.00,15,5,17,0.00
2013-6-4,80,66,45,-100,-100,-100,0,0,100,0.00,40.00,15,6,16,0.00
2013-6-5,87,72,47,-100,-100,-100,0,0,100,0.00,40.00,9,3,16,0.00
2013-6-6,90,73,54,-100,-100,-100,0,0,100,0.00,40.00,12,3,15,0.00
2013-6-7,87,72,59,-100,-100,-100,0,0,100,0.00,40.00,22,6,24,0.00
2013-6-8,85,73,56,-100,-100,-100,0,0,100,0.00,40.00,13,4,13,0.00
2013-6-9,83,70,50,-100,-100,-100,0,0,100,0.00,40.00,14,4,16,0.00
2013-6-10,83,69,51,-100,-100,-100,0,0,100,0.00,40.00,15,6,18,0.00
2013-6-11,73,63,56,-100,-100,-100,0,0,100,0.00,40.00,20,10,25,0.00
2013-6-12,73,62,52,-100,-100,-100,0,0,100,0.00,40.00,16,9,18,0.00
2013-6-13,69,60,50,-100,-100,-100,0,0,100,0.00,40.00,24,10,24,0.00
2013-6-14,77,62,51,-100,-100,-100,0,0,100,0.00,40.00,12,4,12,0.00
2013-6-15,85,69,43,-100,-100,-100,0,0,100,0.00,40.00,12,3,14,0.00
2013-6-16,91,76,56,-100,-100,-100,0,0,100,0.00,40.00,21,4,22,0.00
2013-6-17,89,75,62,-100,-100,-100,0,0,100,0.00,40.00,21,7,22,0.00
2013-6-18,73,64,58,-100,-100,-100,0,0,100,0.00,40.00,15,9,19,0.00
2013-6-19,59,52,46,-100,-100,-100,0,0,100,0.00,40.00,17,8,20,0.00
2013-6-20,67,55,51,-100,-100,-100,0,0,100,0.00,40.00,8,4,12,0.00
2013-6-22,76,69,54,-100,-100,-100,0,0,100,0.00,40.00,16,4,16,0.00
2013-6-23,78,67,54,-100,-100,-100,0,0,100,0.00,40.00,10,3,15,0.00
2013-6-24,68,63,56,-100,-100,-100,0,0,100,0.00,40.00,7,3,9,0.00
2013-6-25,59,58,55,-100,-100,-100,0,0,100,0.00,40.00,4,2,5,0.00
2013-6-27,91,81,73,-100,-100,-100,0,0,100,0.00,40.00,12,5,13,0.00
2013-6-28,95,80,62,-100,-100,-100,0,0,100,0.00,40.00,8,4,9,0.00
2013-6-29,91,82,73,-100,-100,-100,0,0,100,0.00,40.00,16,8,20,0.00
2013-6-30,98,85,65,-100,-100,-100,0,0,100,0.00,40.00,11,5,15,0.00
2013-7-1,102,89,71,-100,-100,-100,0,0,100,0.00,40.00,9,4,12,0.00
2013-7-2,103,88,73,-100,-100,-100,0,0,100,0.00,40.00,10,4,19,0.00
2013-7-3,94,86,74,-100,-100,-100,0,0,100,0.00,40.00,11,4,13,0.00
2013-7-4,87,78,64,-100,-100,-100,0,0,100,0.00,40.00,12,5,15,0.00
2013-7-5,82,73,61,-100,-100,-100,0,0,100,0.00,40.00,12,6,17,0.00
2013-7-6,85,66,48,-100,-100,-100,0,0,100,0.00,40.00,10,4,12,0.00
2013-7-7,91,77,54,-100,-100,-100,0,0,100,0.00,40.00,8,3,15,0.00
2013-7-8,88,75,65,-100,-100,-100,0,0,100,0.00,40.00,14,6,17,0.00
2013-7-9,94,74,54,-100,-100,-100,0,0,100,0.00,40.00,10,4,10,0.00
2013-7-10,94,78,59,-100,-100,-100,0,0,100,0.00,40.00,9,4,12,0.00
2013-7-11,87,79,69,-100,-100,-100,0,0,100,0.00,40.00,9,5,14,0.00
2013-7-12,87,73,62,-100,-100,-100,0,0,100,0.00,40.00,10,6,16,0.00
2013-7-13,84,72,56,-100,-100,-100,0,0,100,0.00,40.00,9,5,12,0.00
2013-7-14,92,76,58,-100,-100,-100,0,0,100,0.00,40.00,10,3,11,0.00
2013-7-15,93,74,54,-100,-100,-100,0,0,100,0.00,40.00,11,4,14,0.00
2013-7-16,97,81,62,-100,-100,-100,0,0,100,0.00,40.00,16,5,19,0.00
2013-7-17,94,80,62,-100,-100,-100,0,0,100,0.00,40.00,7,4,11,0.00
2013-7-18,97,80,54,-100,-100,-100,0,0,100,0.00,40.00,7,4,10,0.00
2013-7-19,97,80,59,-100,-100,-100,0,0,100,0.00,40.00,10,5,13,0.00
2013-7-20,98,76,53,-100,-100,-100,0,0,100,0.00,40.00,11,4,16,0.00
2013-7-21,99,77,52,-100,-100,-100,0,0,100,0.00,40.00,9,3,9,0.00
2013-7-22,95,75,53,-100,-100,-100,0,0,100,0.00,40.00,13,4,17,0.00
2013-7-23,102,76,53,-100,-100,-100,0,0,100,0.00,40.00,7,-40,10,0.00
2013-7-24,96,75,54,-100,-100,-100,0,0,100,0.00,40.00,7,3,9,0.00
2013-7-25,102,80,61,-100,-100,-100,0,0,100,0.00,40.00,8,3,11,0.00
2013-7-26,100,77,52,-100,-100,-100,0,0,100,0.00,40.00,12,3,13,0.00
2013-7-27,90,80,70,-100,-100,-100,0,0,100,0.00,40.00,11,5,14,0.00
2013-7-28,87,72,54,-100,-100,-100,0,0,100,0.00,40.00,11,4,15,0.00
2013-7-29,91,72,46,-100,-100,-100,0,0,100,0.00,40.00,5,2,8,0.00
2013-7-30,92,78,58,-100,-100,-100,0,0,100,0.00,40.00,10,4,12,0.00
2013-7-31,91,77,57,-100,-100,-100,0,0,100,0.00,40.00,12,4,14,0.00
2013-8-1,82,76,66,-100,-100,-100,0,0,100,0.00,40.00,18,10,22,0.00
2013-8-2,77,73,67,-100,-100,-100,0,0,100,0.00,40.00,8,4,14,0.00
2013-8-3,86,72,52,-100,-100,-100,0,0,100,0.00,40.00,8,3,10,0.00
2013-8-4,94,74,54,-100,-100,-100,0,0,100,0.00,40.00,8,3,11,0.00
2013-8-5,94,79,62,-100,-100,-100,0,0,100,0.00,40.00,11,4,16,0.00
2013-8-6,97,76,54,-100,-100,-100,0,0,100,0.00,40.00,8,3,12,0.00
2013-8-7,97,78,55,-100,-100,-100,0,0,100,0.00,40.00,9,3,16,0.00
2013-8-8,94,81,70,-100,-100,-100,0,0,100,0.00,40.00,13,7,16,0.00
2013-8-9,97,82,68,-100,-100,-100,0,0,100,0.00,40.00,13,6,17,0.00
2013-8-10,91,77,63,-100,-100,-100,0,0,100,0.00,40.00,18,6,25,0.00
2013-8-11,89,75,60,-100,-100,-100,0,0,100,0.00,40.00,9,4,16,0.00
2013-8-12,91,75,65,-100,-100,-100,0,0,100,0.00,40.00,15,4,31,0.00
2013-8-13,93,72,56,-100,-100,-100,0,0,100,0.00,40.00,9,3,17,0.00
2013-8-14,98,77,57,-100,-100,-100,0,0,100,0.00,40.00,8,4,13,0.00
2013-8-15,99,74,59,-100,-100,-100,0,0,100,0.00,40.00,12,5,16,0.00
2013-8-16,95,75,63,-100,-100,-100,0,0,100,0.00,40.00,15,6,23,0.00
2013-8-17,94,76,60,-100,-100,-100,0,0,100,0.00,40.00,10,5,14,0.00
2013-8-18,91,78,62,-100,-100,-100,0,0,100,0.00,40.00,15,4,15,0.00
2013-8-19,92,71,55,-100,-100,-100,0,0,100,0.00,40.00,13,4,15,0.00
2013-8-20,91,77,65,-100,-100,-100,0,0,100,0.00,40.00,12,6,15,0.00
2013-8-21,94,69,54,-100,-100,-100,0,0,100,0.00,40.00,6,3,9,0.00
2013-8-22,94,71,62,-100,-100,-100,0,0,100,0.00,40.00,15,4,21,0.00
2013-8-23,88,72,55,-100,-100,-100,0,0,100,0.00,40.00,14,3,14,0.00
2013-8-24,88,68,55,-100,-100,-100,0,0,100,0.00,40.00,15,4,19,0.00
2013-8-25,90,71,55,-100,-100,-100,0,0,100,0.00,40.00,29,7,32,0.00
2013-8-26,89,69,51,-100,-100,-100,0,0,100,0.00,40.00,9,3,16,0.00
2013-8-27,76,64,55,-100,-100,-100,0,0,100,0.00,40.00,5,2,9,0.00
2013-8-28,97,86,72,-100,-100,-100,0,0,100,0.00,40.00,13,6,18,0.00
2013-8-29,91,74,58,-100,-100,-100,0,0,100,0.00,40.00,10,4,13,0.00
2013-8-30,89,75,62,-100,-100,-100,0,0,100,0.00,40.00,11,4,13,0.00
2013-8-31,98,75,54,-100,-100,-100,0,0,100,0.00,40.00,10,3,11,0.00
2013-9-1,94,73,54,-100,-100,-100,0,0,100,0.00,40.00,7,2,13,0.00
2013-9-2,78,73,69,-100,-100,-100,0,0,100,0.00,40.00,11,4,17,0.00
2013-9-3,87,79,71,-100,-100,-100,0,0,100,0.00,40.00,22,11,29,0.00
2013-9-4,91,78,66,-100,-100,-100,0,0,100,0.00,40.00,25,8,30,0.00
2013-9-5,86,71,64,-100,-100,-100,0,0,100,0.00,40.00,24,8,31,0.00
2013-9-6,74,66,55,-100,-100,-100,0,0,100,0.00,40.00,13,4,18,0.00
2013-9-7,84,69,53,-100,-100,-100,0,0,100,0.00,40.00,10,3,11,0.00
2013-9-8,81,68,52,-100,-100,-100,0,0,100,0.00,40.00,12,5,16,0.00
2013-9-9,87,70,52,-100,-100,-100,0,0,100,0.00,40.00,6,3,10,0.00
2013-9-10,91,75,54,-100,-100,-100,0,0,100,0.00,40.00,7,4,8,0.00
2013-9-11,97,72,54,-100,-100,-100,0,0,100,0.00,40.00,9,3,12,0.00
2013-9-12,94,76,58,-100,-100,-100,0,0,100,0.00,40.00,8,3,21,0.00
2013-9-13,92,79,64,-100,-100,-100,0,0,100,0.00,40.00,19,5,29,0.00
2013-9-14,94,72,55,-100,-100,-100,0,0,100,0.00,40.00,11,2,19,0.00
2013-9-15,90,77,63,-100,-100,-100,0,0,100,0.00,40.00,29,11,30,0.00
2013-9-16,80,70,62,-100,-100,-100,0,0,100,0.00,40.00,13,6,17,0.00
2013-9-17,68,59,51,-100,-100,-100,0,0,100,0.00,40.00,16,6,20,0.00
2013-9-18,57,54,50,-100,-100,-100,0,0,100,0.00,40.00,9,4,13,0.00
2013-9-19,75,57,36,-100,-100,-100,0,0,100,0.00,40.00,23,8,26,0.00
2013-9-20,83,77,67,-100,-100,-100,0,0,100,0.00,40.00,27,15,37,0.00
2013-9-21,70,63,57,-100,-100,-100,0,0,100,0.00,40.00,13,5,20,0.00
2013-9-22,71,61,54,-100,-100,-100,0,0,100,0.00,40.00,12,4,16,0.00
2013-9-23,70,60,50,-100,-100,-100,0,0,100,0.00,40.00,6,3,8,0.00
2013-9-24,60,55,47,-100,-100,-100,0,0,100,0.00,40.00,12,3,13,0.00
2013-9-25,57,51,45,-100,-100,-100,0,0,100,0.00,40.00,15,7,20,0.00
2013-9-26,58,53,50,-100,-100,-100,0,0,100,0.00,40.00,22,11,25,0.00
2013-9-27,61,55,44,-100,-100,-100,0,0,100,0.00,40.00,11,6,19,0.00
2013-9-28,69,58,53,-100,-100,-100,0,0,100,0.00,40.00,37,18,37,0.00
2013-9-29,70,55,51,-100,-100,-100,0,0,100,0.00,40.00,25,14,29,0.00
2013-9-30,65,57,51,-100,-100,-100,0,0,100,0.00,40.00,24,9,35,0.00
2013-10-1,50,47,44,-100,-100,-100,0,0,100,0.00,40.00,9,4,16,0.00
2013-10-2,56,46,35,-100,-100,-100,0,0,100,0.00,40.00,12,4,14,0.00
2013-10-3,54,49,45,-100,-100,-100,0,0,100,0.00,40.00,22,10,25,0.00
2013-10-4,65,50,34,-100,-100,-100,0,0,100,0.00,40.00,10,4,15,0.00
2013-10-5,70,49,32,-100,-100,-100,0,0,100,0.00,40.00,12,4,24,0.00
2013-10-6,73,70,66,-100,-100,-100,0,0,100,0.00,40.00,37,22,41,0.00
2013-10-7,65,53,44,-100,-100,-100,0,0,100,0.00,40.00,17,4,23,0.00
2013-10-8,56,50,45,-100,-100,-100,0,0,100,0.00,40.00,15,4,15,0.00
2013-10-9,59,50,43,-100,-100,-100,0,0,100,0.00,40.00,15,8,20,0.00
2013-10-10,62,52,43,-100,-100,-100,0,0,100,0.00,40.00,14,6,17,0.00
2013-10-11,63,51,46,-100,-100,-100,0,0,100,0.00,40.00,8,2,14,0.00
2013-10-12,57,48,40,-100,-100,-100,0,0,100,0.00,40.00,11,4,12,0.00
2013-10-13,59,53,47,-100,-100,-100,0,0,100,0.00,40.00,12,8,16,0.00
2013-10-14,60,48,35,-100,-100,-100,0,0,100,0.00,40.00,10,5,14,0.00
2013-10-15,65,49,32,-100,-100,-100,0,0,100,0.00,40.00,5,2,9,0.00
2013-10-16,69,48,38,-100,-100,-100,0,0,100,0.00,40.00,10,2,12,0.00
2013-10-17,64,48,31,-100,-100,-100,0,0,100,0.00,40.00,15,4,15,0.00
2013-10-18,57,42,33,-100,-100,-100,0,0,100,0.00,40.00,6,2,6,0.00
2013-10-19,71,43,30,-100,-100,-100,0,0,100,0.00,40.00,4,2,5,0.00
2013-10-20,72,53,34,-100,-100,-100,0,0,100,0.00,40.00,13,5,16,0.00
2013-10-21,70,48,37,-100,-100,-100,0,0,100,0.00,40.00,4,2,9,0.00
2013-10-22,73,49,34,-100,-100,-100,0,0,100,0.00,40.00,8,2,8,0.00
2013-10-23,69,46,34,-100,-100,-100,0,0,100,0.00,40.00,5,2,9,0.00
2013-10-24,72,46,32,-100,-100,-100,0,0,100,0.00,40.00,5,1,5,0.00
2013-10-25,71,46,33,-100,-100,-100,0,0,100,0.00,40.00,4,1,6,0.00
2013-10-26,69,47,32,-100,-100,-100,0,0,100,0.00,40.00,5,1,15,0.00
2013-10-27,61,47,34,-100,-100,-100,0,0,100,0.00,40.00,15,6,19,0.00
2013-10-28,52,47,43,-100,-100,-100,0,0,100,0.00,40.00,25,14,30,0.00
2013-10-29,55,42,31,-100,-100,-100,0,0,100,0.00,40.00,8,4,11,0.00
2013-10-30,59,42,28,-100,-100,-100,0,0,100,0.00,40.00,8,2,10,0.00
2013-10-31,54,46,35,-100,-100,-100,0,0,100,0.00,40.00,8,2,10,0.00
2013-11-1,58,50,39,-100,-100,-100,0,0,100,0.00,40.00,16,4,18,0.00
2013-11-2,57,52,44,-100,-100,-100,0,0,100,0.00,40.00,30,15,37,0.00
2013-11-3,46,44,40,-100,-100,-100,0,0,100,0.00,40.00,6,2,7,0.00
2013-11-4,44,36,28,-100,-100,-100,0,0,100,0.00,40.00,13,4,13,0.00
2013-11-5,41,37,28,-100,-100,-100,0,0,100,0.00,40.00,36,15,43,0.00
2013-11-6,49,46,43,-100,-100,-100,0,0,100,0.00,40.00,16,6,23,0.00
2013-11-7,57,51,43,-100,-100,-100,0,0,100,0.00,40.00,50,15,51,0.00
2013-11-8,55,48,45,-100,-100,-100,0,0,100,0.00,40.00,5,2,11,0.00
2013-11-9,58,49,34,-100,-100,-100,0,0,100,0.00,40.00,27,10,37,0.00
2013-11-10,62,58,48,-100,-100,-100,0,0,100,0.00,40.00,27,16,33,0.00
2013-11-11,64,45,33,-100,-100,-100,0,0,100,0.00,40.00,4,2,12,0.00
2013-11-12,62,58,49,-100,-100,-100,0,0,100,0.00,40.00,42,16,50,0.00
2013-11-13,60,51,39,-100,-100,-100,0,0,100,0.00,40.00,9,3,12,0.00
2013-11-14,51,40,32,-100,-100,-100,0,0,100,0.00,40.00,9,4,11,0.00
2013-11-15,51,45,38,-100,-100,-100,0,0,100,0.00,40.00,10,4,13,0.00
2013-11-16,47,43,41,-100,-100,-100,0,0,100,0.00,40.00,19,9,25,0.00
2013-11-17,52,45,42,-100,-100,-100,0,0,100,0.00,40.00,29,12,34,0.00
2013-11-18,51,49,47,-100,-100,-100,0,0,100,0.00,40.00,37,22,46,0.00
2013-11-19,55,51,47,-100,-100,-100,0,0,100,0.00,40.00,27,16,34,0.00
2013-11-20,43,39,32,-100,-100,-100,0,0,100,0.00,40.00,21,12,25,0.00
2013-11-21,43,34,28,-100,-100,-100,0,0,100,0.00,40.00,19,8,19,0.00
2013-11-22,41,28,19,-100,-100,-100,0,0,100,0.00,40.00,6,2,11,0.00
2013-11-23,44,27,20,-100,-100,-100,0,0,100,0.00,40.00,4,1,5,0.00
2013-11-24,47,29,19,-100,-100,-100,0,0,100,0.00,40.00,4,1,8,0.00
2013-11-25,49,34,27,-100,-100,-100,0,0,100,0.00,40.00,4,1,7,0.00
2013-11-26,52,43,33,-100,-100,-100,0,0,100,0.00,40.00,26,7,37,0.00
2013-11-27,56,42,33,-100,-100,-100,0,0,100,0.00,40.00,20,4,25,0.00
2013-11-28,51,35,27,-100,-100,-100,0,0,100,0.00,40.00,7,2,7,0.00
2013-11-29,54,37,24,-100,-100,-100,0,0,100,0.00,40.00,12,3,12,0.00
2013-11-30,53,43,37,-100,-100,-100,0,0,100,0.00,40.00,15,3,18,0.00
2013-12-1,62,53,46,-100,-100,-100,0,0,100,0.00,40.00,30,9,32,0.00
2013-12-2,56,43,35,-100,-100,-100,0,0,100,0.00,40.00,17,9,23,0.00
2013-12-3,34,30,27,-100,-100,-100,0,0,100,0.00,40.00,19,11,19,0.00
2013-12-4,26,23,21,-100,-100,-100,0,0,100,0.00,40.00,16,9,17,0.00
2013-12-6,24,21,12,-100,-100,-100,0,0,100,0.00,40.00,3,2,7,0.00
2013-12-7,22,15,6,-100,-100,-100,0,0,100,0.00,40.00,18,11,23,0.00
2013-12-8,13,3,-3,-100,-100,-100,0,0,100,0.00,40.00,8,3,8,0.00
2013-12-9,25,19,3,-100,-100,-100,0,0,100,0.00,40.00,46,20,47,0.00
2013-12-10,30,26,23,-100,-100,-100,0,0,100,0.00,40.00,31,13,40,0.00
2013-12-11,33,30,24,-100,-100,-100,0,0,100,0.00,40.00,45,26,58,0.00
2013-12-12,36,33,29,-100,-100,-100,0,0,100,0.00,40.00,43,27,61,0.00
2013-12-13,40,37,32,-100,-100,-100,0,0,100,0.00,40.00,4,3,5,0.00
2013-12-16,45,39,34,-100,-100,-100,0,0,100,0.00,40.00,14,4,14,0.00
2013-12-17,45,42,36,-100,-100,-100,0,0,100,0.00,40.00,54,30,59,0.00
2013-12-18,45,40,36,-100,-100,-100,0,0,100,0.00,40.00,14,3,18,0.00
2013-12-19,38,30,22,-100,-100,-100,0,0,100,0.00,40.00,21,10,21,0.00
2013-12-20,30,27,21,-100,-100,-100,0,0,100,0.00,40.00,45,12,54,0.00
2013-12-21,42,36,31,-100,-100,-100,0,0,100,0.00,40.00,8,3,12,0.00
2013-12-22,46,42,39,-100,-100,-100,0,0,100,0.00,40.00,9,4,9,0.00
2013-12-23,47,43,39,-100,-100,-100,0,0,100,0.00,40.00,33,10,33,0.00
2013-12-24,44,37,32,-100,-100,-100,0,0,100,0.00,40.00,21,5,23,0.00
2013-12-25,33,29,27,-100,-100,-100,0,0,100,0.00,40.00,3,3,10,0.00
2013-12-26,44,42,36,-100,-100,-100,0,0,100,0.00,40.00,23,14,34,0.00
2013-12-27,44,42,37,-100,-100,-100,0,0,100,0.00,40.00,48,25,56,0.00
2013-12-28,49,38,30,-100,-100,-100,0,0,100,0.00,40.00,6,2,8,0.00
2013-12-29,39,34,25,-100,-100,-100,0,0,100,0.00,40.00,6,2,7,0.00
2013-12-30,42,35,32,-100,-100,-100,0,0,100,0.00,40.00,7,2,12,0.00
2013-12-31,44,40,38,-100,-100,-100,0,0,100,0.00,40.00,11,4,15,0.00
2014-1-1,43,38,34,-100,-100,-100,0,0,100,0.00,40.00,5,2,9,0.00
2014-1-2,43,41,36,-100,-100,-100,0,0,100,0.00,40.00,48,26,55,0.00